sensor_id;sensor_type;location;lat;lon;timestamp;P1;durP1;ratioP1;P2;durP2;ratioP2
6937;SDS011;40040;42.706;23.372;2023-11-18T00:01:46;0.90;;;0.90;;
6937;SDS011;40040;42.706;23.372;2023-11-18T00:04:33;0.80;;;0.80;;
6937;SDS011;40040;42.706;23.372;2023-11-18T00:07:20;1.10;;;1.10;;
6937;SDS011;40040;42.706;23.372;2023-11-18T00:10:09;0.90;;;0.90;;
6937;SDS011;40040;42.706;23.372;2023-11-18T00:12:57;1.00;;;1.00;;
6937;SDS011;40040;42.706;23.372;2023-11-18T00:15:44;1.00;;;1.00;;
6937;SDS011;40040;42.706;23.372;2023-11-18T00:18:33;0.80;;;0.80;;
6937;SDS011;40040;42.706;23.372;2023-11-18T00:21:20;0.90;;;0.90;;
6937;SDS011;40040;42.706;23.372;2023-11-18T00:24:08;0.73;;;0.73;;
6937;SDS011;40040;42.706;23.372;2023-11-18T00:26:56;1.00;;;0.90;;
6937;SDS011;40040;42.706;23.372;2023-11-18T00:29:43;1.00;;;1.00;;
6937;SDS011;40040;42.706;23.372;2023-11-18T00:32:31;0.73;;;0.73;;
6937;SDS011;40040;42.706;23.372;2023-11-18T00:35:18;0.90;;;0.90;;
6937;SDS011;40040;42.706;23.372;2023-11-18T00:38:05;1.00;;;1.00;;
6937;SDS011;40040;42.706;23.372;2023-11-18T00:40:52;0.80;;;0.80;;
6937;SDS011;40040;42.706;23.372;2023-11-18T00:43:40;0.80;;;0.80;;
6937;SDS011;40040;42.706;23.372;2023-11-18T00:46:27;1.03;;;1.03;;
6937;SDS011;40040;42.706;23.372;2023-11-18T00:49:16;0.90;;;0.90;;
6937;SDS011;40040;42.706;23.372;2023-11-18T00:52:03;0.77;;;0.77;;
6937;SDS011;40040;42.706;23.372;2023-11-18T00:54:50;0.80;;;0.80;;
6937;SDS011;40040;42.706;23.372;2023-11-18T00:57:37;0.83;;;0.83;;
6937;SDS011;40040;42.706;23.372;2023-11-18T01:00:27;1.03;;;1.03;;
6937;SDS011;40040;42.706;23.372;2023-11-18T01:03:15;0.97;;;0.97;;
6937;SDS011;40040;42.706;23.372;2023-11-18T01:06:03;1.10;;;1.10;;
6937;SDS011;40040;42.706;23.372;2023-11-18T01:08:51;1.00;;;1.00;;
6937;SDS011;40040;42.706;23.372;2023-11-18T01:11:39;0.80;;;0.80;;
6937;SDS011;40040;42.706;23.372;2023-11-18T01:14:26;1.03;;;1.03;;
6937;SDS011;40040;42.706;23.372;2023-11-18T01:17:14;0.90;;;0.90;;
6937;SDS011;40040;42.706;23.372;2023-11-18T01:20:02;0.80;;;0.80;;
6937;SDS011;40040;42.706;23.372;2023-11-18T01:22:54;1.10;;;1.10;;
6937;SDS011;40040;42.706;23.372;2023-11-18T01:25:42;1.17;;;1.17;;
6937;SDS011;40040;42.706;23.372;2023-11-18T01:28:29;1.20;;;1.20;;
6937;SDS011;40040;42.706;23.372;2023-11-18T01:31:17;1.00;;;1.00;;
6937;SDS011;40040;42.706;23.372;2023-11-18T01:34:05;1.10;;;1.10;;
6937;SDS011;40040;42.706;23.372;2023-11-18T01:36:53;1.97;;;1.30;;
6937;SDS011;40040;42.706;23.372;2023-11-18T01:39:40;1.30;;;1.30;;
6937;SDS011;40040;42.706;23.372;2023-11-18T01:42:27;1.30;;;1.30;;
6937;SDS011;40040;42.706;23.372;2023-11-18T01:45:16;1.20;;;1.20;;
6937;SDS011;40040;42.706;23.372;2023-11-18T01:48:03;1.37;;;1.30;;
6937;SDS011;40040;42.706;23.372;2023-11-18T01:50:53;1.47;;;1.47;;
6937;SDS011;40040;42.706;23.372;2023-11-18T01:53:43;1.50;;;1.50;;
6937;SDS011;40040;42.706;23.372;2023-11-18T01:56:31;1.50;;;1.50;;
6937;SDS011;40040;42.706;23.372;2023-11-18T01:59:19;1.80;;;1.70;;
6937;SDS011;40040;42.706;23.372;2023-11-18T02:02:06;1.53;;;1.53;;
6937;SDS011;40040;42.706;23.372;2023-11-18T02:04:53;1.20;;;1.20;;
6937;SDS011;40040;42.706;23.372;2023-11-18T02:07:42;1.13;;;1.13;;
6937;SDS011;40040;42.706;23.372;2023-11-18T02:10:29;1.27;;;1.27;;
6937;SDS011;40040;42.706;23.372;2023-11-18T02:13:20;1.20;;;1.20;;
6937;SDS011;40040;42.706;23.372;2023-11-18T02:16:11;1.53;;;1.50;;
6937;SDS011;40040;42.706;23.372;2023-11-18T02:18:59;1.40;;;1.40;;
6937;SDS011;40040;42.706;23.372;2023-11-18T02:21:48;1.40;;;1.40;;
6937;SDS011;40040;42.706;23.372;2023-11-18T02:24:38;1.30;;;1.30;;
6937;SDS011;40040;42.706;23.372;2023-11-18T02:27:28;1.40;;;1.40;;
6937;SDS011;40040;42.706;23.372;2023-11-18T02:30:15;1.60;;;1.50;;
6937;SDS011;40040;42.706;23.372;2023-11-18T02:33:04;1.90;;;1.80;;
6937;SDS011;40040;42.706;23.372;2023-11-18T02:36:00;2.77;;;1.60;;
6937;SDS011;40040;42.706;23.372;2023-11-18T02:38:54;1.73;;;1.63;;
6937;SDS011;40040;42.706;23.372;2023-11-18T02:41:42;1.70;;;1.60;;
6937;SDS011;40040;42.706;23.372;2023-11-18T02:44:36;1.50;;;1.50;;
6937;SDS011;40040;42.706;23.372;2023-11-18T02:47:24;1.40;;;1.40;;
6937;SDS011;40040;42.706;23.372;2023-11-18T02:50:12;1.90;;;1.80;;
6937;SDS011;40040;42.706;23.372;2023-11-18T02:53:00;2.20;;;2.10;;
6937;SDS011;40040;42.706;23.372;2023-11-18T02:55:48;1.70;;;1.60;;
6937;SDS011;40040;42.706;23.372;2023-11-18T02:58:37;2.20;;;2.10;;
6937;SDS011;40040;42.706;23.372;2023-11-18T03:01:25;1.67;;;1.30;;
6937;SDS011;40040;42.706;23.372;2023-11-18T03:04:13;2.57;;;1.90;;
6937;SDS011;40040;42.706;23.372;2023-11-18T03:07:00;2.30;;;2.20;;
6937;SDS011;40040;42.706;23.372;2023-11-18T03:09:47;2.00;;;1.90;;
6937;SDS011;40040;42.706;23.372;2023-11-18T03:12:34;2.50;;;2.40;;
6937;SDS011;40040;42.706;23.372;2023-11-18T03:15:22;2.50;;;2.37;;
6937;SDS011;40040;42.706;23.372;2023-11-18T03:18:10;2.40;;;2.30;;
6937;SDS011;40040;42.706;23.372;2023-11-18T03:20:57;2.13;;;2.03;;
6937;SDS011;40040;42.706;23.372;2023-11-18T03:23:45;2.47;;;2.37;;
6937;SDS011;40040;42.706;23.372;2023-11-18T03:26:32;2.57;;;2.37;;
6937;SDS011;40040;42.706;23.372;2023-11-18T03:29:20;2.37;;;2.27;;
6937;SDS011;40040;42.706;23.372;2023-11-18T03:32:07;2.73;;;2.60;;
6937;SDS011;40040;42.706;23.372;2023-11-18T03:34:55;2.63;;;2.47;;
6937;SDS011;40040;42.706;23.372;2023-11-18T03:37:44;3.37;;;2.30;;
6937;SDS011;40040;42.706;23.372;2023-11-18T03:40:31;2.53;;;2.30;;
6937;SDS011;40040;42.706;23.372;2023-11-18T03:43:20;2.37;;;2.23;;
6937;SDS011;40040;42.706;23.372;2023-11-18T03:46:07;2.63;;;1.90;;
6937;SDS011;40040;42.706;23.372;2023-11-18T03:48:56;1.90;;;1.80;;
6937;SDS011;40040;42.706;23.372;2023-11-18T03:51:44;2.47;;;2.27;;
6937;SDS011;40040;42.706;23.372;2023-11-18T03:54:31;2.00;;;1.90;;
6937;SDS011;40040;42.706;23.372;2023-11-18T03:57:18;2.67;;;2.47;;
6937;SDS011;40040;42.706;23.372;2023-11-18T04:00:06;2.00;;;1.90;;
6937;SDS011;40040;42.706;23.372;2023-11-18T04:02:56;2.10;;;2.00;;
6937;SDS011;40040;42.706;23.372;2023-11-18T04:05:44;2.23;;;2.13;;
6937;SDS011;40040;42.706;23.372;2023-11-18T04:08:32;2.40;;;2.20;;
6937;SDS011;40040;42.706;23.372;2023-11-18T04:11:20;3.57;;;2.40;;
6937;SDS011;40040;42.706;23.372;2023-11-18T04:14:07;2.20;;;2.10;;
6937;SDS011;40040;42.706;23.372;2023-11-18T04:16:54;2.37;;;2.27;;
6937;SDS011;40040;42.706;23.372;2023-11-18T04:19:43;2.23;;;2.13;;
6937;SDS011;40040;42.706;23.372;2023-11-18T04:22:31;2.47;;;2.27;;
6937;SDS011;40040;42.706;23.372;2023-11-18T04:25:19;2.40;;;2.30;;
6937;SDS011;40040;42.706;23.372;2023-11-18T04:28:07;2.77;;;2.60;;
6937;SDS011;40040;42.706;23.372;2023-11-18T04:30:54;2.30;;;2.20;;
6937;SDS011;40040;42.706;23.372;2023-11-18T04:33:41;2.57;;;2.30;;
6937;SDS011;40040;42.706;23.372;2023-11-18T04:36:28;2.47;;;2.33;;
6937;SDS011;40040;42.706;23.372;2023-11-18T04:39:16;2.40;;;2.30;;
6937;SDS011;40040;42.706;23.372;2023-11-18T04:42:05;2.57;;;2.37;;
6937;SDS011;40040;42.706;23.372;2023-11-18T04:44:52;2.37;;;2.13;;
6937;SDS011;40040;42.706;23.372;2023-11-18T04:47:40;2.30;;;2.20;;
6937;SDS011;40040;42.706;23.372;2023-11-18T04:50:28;2.50;;;2.30;;
6937;SDS011;40040;42.706;23.372;2023-11-18T04:53:16;2.00;;;1.90;;
6937;SDS011;40040;42.706;23.372;2023-11-18T04:56:03;2.67;;;2.47;;
6937;SDS011;40040;42.706;23.372;2023-11-18T04:58:53;2.30;;;2.20;;
6937;SDS011;40040;42.706;23.372;2023-11-18T05:01:40;2.67;;;1.90;;
6937;SDS011;40040;42.706;23.372;2023-11-18T05:04:27;3.07;;;2.60;;
6937;SDS011;40040;42.706;23.372;2023-11-18T05:07:14;2.57;;;2.37;;
6937;SDS011;40040;42.706;23.372;2023-11-18T05:10:01;2.40;;;2.30;;
6937;SDS011;40040;42.706;23.372;2023-11-18T05:12:49;2.60;;;2.40;;
6937;SDS011;40040;42.706;23.372;2023-11-18T05:15:42;2.67;;;2.37;;
6937;SDS011;40040;42.706;23.372;2023-11-18T05:18:30;2.40;;;2.30;;
6937;SDS011;40040;42.706;23.372;2023-11-18T05:21:20;2.23;;;2.13;;
6937;SDS011;40040;42.706;23.372;2023-11-18T05:24:08;1.77;;;1.67;;
6937;SDS011;40040;42.706;23.372;2023-11-18T05:26:55;2.73;;;2.53;;
6937;SDS011;40040;42.706;23.372;2023-11-18T05:29:43;2.30;;;2.20;;
6937;SDS011;40040;42.706;23.372;2023-11-18T05:32:34;1.73;;;1.63;;
6937;SDS011;40040;42.706;23.372;2023-11-18T05:35:22;1.90;;;1.80;;
6937;SDS011;40040;42.706;23.372;2023-11-18T05:38:13;1.20;;;1.10;;
6937;SDS011;40040;42.706;23.372;2023-11-18T05:41:02;1.90;;;1.80;;
6937;SDS011;40040;42.706;23.372;2023-11-18T05:43:51;1.80;;;1.80;;
6937;SDS011;40040;42.706;23.372;2023-11-18T05:46:39;1.80;;;1.70;;
6937;SDS011;40040;42.706;23.372;2023-11-18T05:49:27;1.20;;;1.20;;
6937;SDS011;40040;42.706;23.372;2023-11-18T05:52:14;1.80;;;1.20;;
6937;SDS011;40040;42.706;23.372;2023-11-18T05:55:01;1.37;;;1.37;;
6937;SDS011;40040;42.706;23.372;2023-11-18T05:57:49;1.77;;;1.77;;
6937;SDS011;40040;42.706;23.372;2023-11-18T06:00:36;1.33;;;1.33;;
6937;SDS011;40040;42.706;23.372;2023-11-18T06:03:23;1.37;;;1.37;;
6937;SDS011;40040;42.706;23.372;2023-11-18T06:06:11;1.20;;;1.20;;
6937;SDS011;40040;42.706;23.372;2023-11-18T06:09:01;1.10;;;1.10;;
6937;SDS011;40040;42.706;23.372;2023-11-18T06:11:53;1.10;;;1.07;;
6937;SDS011;40040;42.706;23.372;2023-11-18T06:14:41;0.80;;;0.80;;
6937;SDS011;40040;42.706;23.372;2023-11-18T06:17:30;1.13;;;1.00;;
6937;SDS011;40040;42.706;23.372;2023-11-18T06:20:17;2.30;;;1.27;;
6937;SDS011;40040;42.706;23.372;2023-11-18T06:23:07;1.00;;;1.00;;
6937;SDS011;40040;42.706;23.372;2023-11-18T06:25:54;1.47;;;1.37;;
6937;SDS011;40040;42.706;23.372;2023-11-18T06:28:45;1.73;;;1.60;;
6937;SDS011;40040;42.706;23.372;2023-11-18T06:31:34;2.00;;;1.90;;
6937;SDS011;40040;42.706;23.372;2023-11-18T06:34:21;1.67;;;1.57;;
6937;SDS011;40040;42.706;23.372;2023-11-18T06:37:08;2.57;;;1.10;;
6937;SDS011;40040;42.706;23.372;2023-11-18T06:39:57;1.20;;;1.20;;
6937;SDS011;40040;42.706;23.372;2023-11-18T06:42:44;0.97;;;0.93;;
6937;SDS011;40040;42.706;23.372;2023-11-18T06:45:32;1.03;;;0.97;;
6937;SDS011;40040;42.706;23.372;2023-11-18T06:48:19;0.80;;;0.80;;
6937;SDS011;40040;42.706;23.372;2023-11-18T06:51:07;1.03;;;1.03;;
6937;SDS011;40040;42.706;23.372;2023-11-18T06:53:55;0.77;;;0.77;;
6937;SDS011;40040;42.706;23.372;2023-11-18T06:56:44;0.63;;;0.63;;
6937;SDS011;40040;42.706;23.372;2023-11-18T06:59:31;0.70;;;0.70;;
6937;SDS011;40040;42.706;23.372;2023-11-18T07:02:18;1.00;;;1.00;;
6937;SDS011;40040;42.706;23.372;2023-11-18T07:05:06;0.87;;;0.87;;
6937;SDS011;40040;42.706;23.372;2023-11-18T07:07:54;0.83;;;0.83;;
6937;SDS011;40040;42.706;23.372;2023-11-18T07:10:41;0.90;;;0.90;;
6937;SDS011;40040;42.706;23.372;2023-11-18T07:13:29;0.70;;;0.70;;
6937;SDS011;40040;42.706;23.372;2023-11-18T07:16:17;1.57;;;0.90;;
6937;SDS011;40040;42.706;23.372;2023-11-18T07:19:04;1.00;;;1.00;;
6937;SDS011;40040;42.706;23.372;2023-11-18T07:21:52;1.20;;;1.10;;
6937;SDS011;40040;42.706;23.372;2023-11-18T07:24:39;0.77;;;0.77;;
6937;SDS011;40040;42.706;23.372;2023-11-18T07:27:26;0.90;;;0.90;;
6937;SDS011;40040;42.706;23.372;2023-11-18T07:30:15;1.80;;;0.90;;
6937;SDS011;40040;42.706;23.372;2023-11-18T07:33:02;0.70;;;0.70;;
6937;SDS011;40040;42.706;23.372;2023-11-18T07:35:50;1.00;;;1.00;;
6937;SDS011;40040;42.706;23.372;2023-11-18T07:38:39;1.00;;;1.00;;
6937;SDS011;40040;42.706;23.372;2023-11-18T07:41:26;1.10;;;1.10;;
6937;SDS011;40040;42.706;23.372;2023-11-18T07:44:13;1.07;;;0.87;;
6937;SDS011;40040;42.706;23.372;2023-11-18T07:47:03;1.27;;;1.27;;
6937;SDS011;40040;42.706;23.372;2023-11-18T07:49:50;1.00;;;1.00;;
6937;SDS011;40040;42.706;23.372;2023-11-18T07:52:38;0.93;;;0.93;;
6937;SDS011;40040;42.706;23.372;2023-11-18T07:55:25;1.10;;;1.10;;
6937;SDS011;40040;42.706;23.372;2023-11-18T07:58:12;1.00;;;1.00;;
6937;SDS011;40040;42.706;23.372;2023-11-18T08:00:59;1.13;;;0.80;;
6937;SDS011;40040;42.706;23.372;2023-11-18T08:03:48;0.80;;;0.80;;
6937;SDS011;40040;42.706;23.372;2023-11-18T08:06:36;0.70;;;0.70;;
6937;SDS011;40040;42.706;23.372;2023-11-18T08:09:23;1.33;;;1.10;;
6937;SDS011;40040;42.706;23.372;2023-11-18T08:12:11;0.77;;;0.77;;
6937;SDS011;40040;42.706;23.372;2023-11-18T08:14:59;1.23;;;1.23;;
6937;SDS011;40040;42.706;23.372;2023-11-18T08:17:48;1.37;;;1.10;;
6937;SDS011;40040;42.706;23.372;2023-11-18T08:20:37;1.30;;;1.00;;
6937;SDS011;40040;42.706;23.372;2023-11-18T08:23:25;1.00;;;1.00;;
6937;SDS011;40040;42.706;23.372;2023-11-18T08:26:13;1.27;;;0.90;;
6937;SDS011;40040;42.706;23.372;2023-11-18T08:29:00;0.87;;;0.87;;
6937;SDS011;40040;42.706;23.372;2023-11-18T08:31:47;0.73;;;0.73;;
6937;SDS011;40040;42.706;23.372;2023-11-18T08:34:35;1.07;;;0.97;;
6937;SDS011;40040;42.706;23.372;2023-11-18T08:37:24;1.43;;;1.33;;
6937;SDS011;40040;42.706;23.372;2023-11-18T08:40:13;1.23;;;1.20;;
6937;SDS011;40040;42.706;23.372;2023-11-18T08:43:01;2.03;;;1.20;;
6937;SDS011;40040;42.706;23.372;2023-11-18T08:45:50;0.90;;;0.90;;
6937;SDS011;40040;42.706;23.372;2023-11-18T08:48:38;0.97;;;0.97;;
6937;SDS011;40040;42.706;23.372;2023-11-18T08:51:26;1.47;;;1.37;;
6937;SDS011;40040;42.706;23.372;2023-11-18T08:54:15;1.20;;;1.20;;
6937;SDS011;40040;42.706;23.372;2023-11-18T08:57:11;1.00;;;1.00;;
6937;SDS011;40040;42.706;23.372;2023-11-18T09:00:11;0.80;;;0.80;;
6937;SDS011;40040;42.706;23.372;2023-11-18T09:03:20;0.90;;;0.90;;
6937;SDS011;40040;42.706;23.372;2023-11-18T09:06:13;1.33;;;1.20;;
6937;SDS011;40040;42.706;23.372;2023-11-18T09:09:04;1.10;;;1.10;;
6937;SDS011;40040;42.706;23.372;2023-11-18T09:11:57;1.40;;;1.40;;
6937;SDS011;40040;42.706;23.372;2023-11-18T09:14:44;1.03;;;0.93;;
6937;SDS011;40040;42.706;23.372;2023-11-18T09:17:33;1.10;;;1.10;;
6937;SDS011;40040;42.706;23.372;2023-11-18T09:20:20;1.70;;;1.60;;
6937;SDS011;40040;42.706;23.372;2023-11-18T09:23:07;2.20;;;1.10;;
6937;SDS011;40040;42.706;23.372;2023-11-18T09:25:54;1.30;;;1.20;;
6937;SDS011;40040;42.706;23.372;2023-11-18T09:28:43;1.37;;;1.23;;
6937;SDS011;40040;42.706;23.372;2023-11-18T09:31:31;1.20;;;1.00;;
6937;SDS011;40040;42.706;23.372;2023-11-18T09:34:18;1.27;;;1.17;;
6937;SDS011;40040;42.706;23.372;2023-11-18T09:37:12;1.20;;;1.20;;
6937;SDS011;40040;42.706;23.372;2023-11-18T09:40:00;0.93;;;0.93;;
6937;SDS011;40040;42.706;23.372;2023-11-18T09:42:56;0.80;;;0.80;;
6937;SDS011;40040;42.706;23.372;2023-11-18T09:45:46;4.27;;;0.93;;
6937;SDS011;40040;42.706;23.372;2023-11-18T09:48:33;3.30;;;1.20;;
6937;SDS011;40040;42.706;23.372;2023-11-18T09:51:26;1.23;;;1.13;;
6937;SDS011;40040;42.706;23.372;2023-11-18T09:54:17;1.00;;;1.00;;
6937;SDS011;40040;42.706;23.372;2023-11-18T09:57:12;1.37;;;1.37;;
6937;SDS011;40040;42.706;23.372;2023-11-18T10:00:08;1.07;;;1.07;;
6937;SDS011;40040;42.706;23.372;2023-11-18T10:03:07;0.90;;;0.90;;
6937;SDS011;40040;42.706;23.372;2023-11-18T10:05:57;1.03;;;1.03;;
6937;SDS011;40040;42.706;23.372;2023-11-18T10:08:50;1.20;;;1.10;;
6937;SDS011;40040;42.706;23.372;2023-11-18T10:11:38;2.10;;;1.67;;
6937;SDS011;40040;42.706;23.372;2023-11-18T10:14:26;1.70;;;1.60;;
6937;SDS011;40040;42.706;23.372;2023-11-18T10:17:15;1.40;;;1.40;;
6937;SDS011;40040;42.706;23.372;2023-11-18T10:20:07;2.97;;;0.90;;
6937;SDS011;40040;42.706;23.372;2023-11-18T10:23:08;1.27;;;1.27;;
6937;SDS011;40040;42.706;23.372;2023-11-18T10:25:56;1.20;;;1.20;;
6937;SDS011;40040;42.706;23.372;2023-11-18T10:28:46;1.17;;;1.17;;
6937;SDS011;40040;42.706;23.372;2023-11-18T10:31:35;1.27;;;1.27;;
6937;SDS011;40040;42.706;23.372;2023-11-18T10:34:30;1.13;;;1.13;;
6937;SDS011;40040;42.706;23.372;2023-11-18T10:37:19;1.27;;;1.27;;
6937;SDS011;40040;42.706;23.372;2023-11-18T10:40:08;0.93;;;0.93;;
6937;SDS011;40040;42.706;23.372;2023-11-18T10:42:58;1.30;;;1.30;;
6937;SDS011;40040;42.706;23.372;2023-11-18T10:45:46;1.40;;;1.40;;
6937;SDS011;40040;42.706;23.372;2023-11-18T10:48:33;1.70;;;1.60;;
6937;SDS011;40040;42.706;23.372;2023-11-18T10:51:22;1.40;;;1.30;;
6937;SDS011;40040;42.706;23.372;2023-11-18T10:54:13;1.40;;;1.33;;
6937;SDS011;40040;42.706;23.372;2023-11-18T10:57:03;1.10;;;1.10;;
6937;SDS011;40040;42.706;23.372;2023-11-18T10:59:58;1.13;;;1.10;;
6937;SDS011;40040;42.706;23.372;2023-11-18T11:02:46;0.90;;;0.90;;
6937;SDS011;40040;42.706;23.372;2023-11-18T11:05:35;1.00;;;1.00;;
6937;SDS011;40040;42.706;23.372;2023-11-18T11:08:26;1.00;;;1.00;;
6937;SDS011;40040;42.706;23.372;2023-11-18T11:11:18;1.27;;;1.20;;
6937;SDS011;40040;42.706;23.372;2023-11-18T11:14:07;1.00;;;1.00;;
6937;SDS011;40040;42.706;23.372;2023-11-18T11:16:58;0.87;;;0.87;;
6937;SDS011;40040;42.706;23.372;2023-11-18T11:19:58;0.80;;;0.80;;
6937;SDS011;40040;42.706;23.372;2023-11-18T11:23:01;1.57;;;1.47;;
6937;SDS011;40040;42.706;23.372;2023-11-18T11:25:59;1.50;;;1.40;;
6937;SDS011;40040;42.706;23.372;2023-11-18T11:28:52;1.67;;;1.57;;
6937;SDS011;40040;42.706;23.372;2023-11-18T11:31:46;1.20;;;1.00;;
6937;SDS011;40040;42.706;23.372;2023-11-18T11:34:37;1.20;;;1.20;;
6937;SDS011;40040;42.706;23.372;2023-11-18T11:37:28;1.10;;;1.10;;
6937;SDS011;40040;42.706;23.372;2023-11-18T11:40:17;0.80;;;0.80;;
6937;SDS011;40040;42.706;23.372;2023-11-18T11:43:09;1.47;;;1.37;;
6937;SDS011;40040;42.706;23.372;2023-11-18T11:45:58;1.17;;;1.07;;
6937;SDS011;40040;42.706;23.372;2023-11-18T11:48:48;1.23;;;1.10;;
6937;SDS011;40040;42.706;23.372;2023-11-18T11:51:39;1.27;;;1.27;;
6937;SDS011;40040;42.706;23.372;2023-11-18T11:54:35;1.10;;;1.10;;
6937;SDS011;40040;42.706;23.372;2023-11-18T11:57:30;1.27;;;1.20;;
6937;SDS011;40040;42.706;23.372;2023-11-18T12:00:20;1.53;;;1.53;;
6937;SDS011;40040;42.706;23.372;2023-11-18T12:03:12;1.23;;;1.10;;
6937;SDS011;40040;42.706;23.372;2023-11-18T12:06:03;1.50;;;1.40;;
6937;SDS011;40040;42.706;23.372;2023-11-18T12:08:54;1.40;;;1.40;;
6937;SDS011;40040;42.706;23.372;2023-11-18T12:11:43;1.93;;;1.90;;
6937;SDS011;40040;42.706;23.372;2023-11-18T12:14:31;1.60;;;1.50;;
6937;SDS011;40040;42.706;23.372;2023-11-18T12:17:26;1.30;;;1.20;;
6937;SDS011;40040;42.706;23.372;2023-11-18T12:23:28;1.70;;;1.60;;
6937;SDS011;40040;42.706;23.372;2023-11-18T12:29:30;1.90;;;1.80;;
6937;SDS011;40040;42.706;23.372;2023-11-18T12:35:36;1.50;;;1.40;;
6937;SDS011;40040;42.706;23.372;2023-11-18T12:38:48;1.37;;;1.27;;
6937;SDS011;40040;42.706;23.372;2023-11-18T12:42:02;1.40;;;1.40;;
6937;SDS011;40040;42.706;23.372;2023-11-18T12:44:57;1.27;;;1.17;;
6937;SDS011;40040;42.706;23.372;2023-11-18T12:48:06;1.30;;;1.20;;
6937;SDS011;40040;42.706;23.372;2023-11-18T12:50:57;1.70;;;1.60;;
6937;SDS011;40040;42.706;23.372;2023-11-18T12:53:50;1.43;;;1.43;;
6937;SDS011;40040;42.706;23.372;2023-11-18T12:56:38;1.00;;;1.00;;
6937;SDS011;40040;42.706;23.372;2023-11-18T12:59:29;1.57;;;1.47;;
6937;SDS011;40040;42.706;23.372;2023-11-18T13:02:18;1.40;;;1.40;;
6937;SDS011;40040;42.706;23.372;2023-11-18T13:05:05;2.00;;;1.90;;
6937;SDS011;40040;42.706;23.372;2023-11-18T13:07:54;1.80;;;1.70;;
6937;SDS011;40040;42.706;23.372;2023-11-18T13:10:44;1.60;;;1.50;;
6937;SDS011;40040;42.706;23.372;2023-11-18T13:13:33;1.50;;;1.50;;
6937;SDS011;40040;42.706;23.372;2023-11-18T13:16:21;1.67;;;1.67;;
6937;SDS011;40040;42.706;23.372;2023-11-18T13:19:08;1.87;;;1.77;;
6937;SDS011;40040;42.706;23.372;2023-11-18T13:21:58;2.37;;;2.17;;
6937;SDS011;40040;42.706;23.372;2023-11-18T13:24:46;3.97;;;1.77;;
6937;SDS011;40040;42.706;23.372;2023-11-18T13:27:36;1.93;;;1.80;;
6937;SDS011;40040;42.706;23.372;2023-11-18T13:30:24;1.30;;;1.20;;
6937;SDS011;40040;42.706;23.372;2023-11-18T13:33:12;3.83;;;2.37;;
6937;SDS011;40040;42.706;23.372;2023-11-18T13:35:59;2.30;;;2.20;;
6937;SDS011;40040;42.706;23.372;2023-11-18T13:38:47;2.77;;;2.57;;
6937;SDS011;40040;42.706;23.372;2023-11-18T13:41:36;2.60;;;2.40;;
6937;SDS011;40040;42.706;23.372;2023-11-18T13:44:33;3.13;;;2.50;;
6937;SDS011;40040;42.706;23.372;2023-11-18T13:47:20;2.10;;;2.00;;
6937;SDS011;40040;42.706;23.372;2023-11-18T13:50:08;2.43;;;2.07;;
6937;SDS011;40040;42.706;23.372;2023-11-18T13:52:59;2.20;;;2.10;;
6937;SDS011;40040;42.706;23.372;2023-11-18T13:55:46;1.87;;;1.77;;
6937;SDS011;40040;42.706;23.372;2023-11-18T13:58:34;2.60;;;2.40;;
6937;SDS011;40040;42.706;23.372;2023-11-18T14:01:25;3.03;;;2.50;;
6937;SDS011;40040;42.706;23.372;2023-11-18T14:04:13;3.27;;;2.23;;
6937;SDS011;40040;42.706;23.372;2023-11-18T14:07:02;2.57;;;2.40;;
6937;SDS011;40040;42.706;23.372;2023-11-18T14:09:51;2.57;;;2.30;;
6937;SDS011;40040;42.706;23.372;2023-11-18T14:15:48;3.07;;;2.30;;
6937;SDS011;40040;42.706;23.372;2023-11-18T14:18:42;2.60;;;2.40;;
6937;SDS011;40040;42.706;23.372;2023-11-18T14:21:29;2.33;;;2.10;;
6937;SDS011;40040;42.706;23.372;2023-11-18T14:24:17;2.47;;;2.27;;
6937;SDS011;40040;42.706;23.372;2023-11-18T14:27:04;2.40;;;2.20;;
6937;SDS011;40040;42.706;23.372;2023-11-18T14:29:53;2.87;;;2.40;;
6937;SDS011;40040;42.706;23.372;2023-11-18T14:32:45;2.93;;;2.63;;
6937;SDS011;40040;42.706;23.372;2023-11-18T14:35:34;2.83;;;2.47;;
6937;SDS011;40040;42.706;23.372;2023-11-18T14:38:22;2.23;;;1.93;;
6937;SDS011;40040;42.706;23.372;2023-11-18T14:41:09;2.93;;;2.73;;
6937;SDS011;40040;42.706;23.372;2023-11-18T14:43:58;3.20;;;2.53;;
6937;SDS011;40040;42.706;23.372;2023-11-18T14:46:26;4.10;;;2.97;;
6937;SDS011;40040;42.706;23.372;2023-11-18T14:48:53;6.20;;;3.13;;
6937;SDS011;40040;42.706;23.372;2023-11-18T14:51:23;8.27;;;5.30;;
6937;SDS011;40040;42.706;23.372;2023-11-18T14:53:50;3.63;;;3.33;;
6937;SDS011;40040;42.706;23.372;2023-11-18T14:56:18;4.10;;;3.37;;
6937;SDS011;40040;42.706;23.372;2023-11-18T14:58:45;4.60;;;3.13;;
6937;SDS011;40040;42.706;23.372;2023-11-18T15:01:14;2.97;;;2.77;;
6937;SDS011;40040;42.706;23.372;2023-11-18T15:03:44;2.80;;;2.40;;
6937;SDS011;40040;42.706;23.372;2023-11-18T15:06:12;3.90;;;3.23;;
6937;SDS011;40040;42.706;23.372;2023-11-18T15:08:40;2.30;;;2.17;;
6937;SDS011;40040;42.706;23.372;2023-11-18T15:11:10;4.00;;;3.47;;
6937;SDS011;40040;42.706;23.372;2023-11-18T15:13:40;2.10;;;2.00;;
6937;SDS011;40040;42.706;23.372;2023-11-18T15:16:07;2.80;;;2.60;;
6937;SDS011;40040;42.706;23.372;2023-11-18T15:18:34;2.40;;;2.30;;
6937;SDS011;40040;42.706;23.372;2023-11-18T15:21:01;3.50;;;3.20;;
6937;SDS011;40040;42.706;23.372;2023-11-18T15:23:29;3.53;;;3.23;;
6937;SDS011;40040;42.706;23.372;2023-11-18T15:26:16;3.60;;;3.30;;
6937;SDS011;40040;42.706;23.372;2023-11-18T15:28:43;5.53;;;2.70;;
6937;SDS011;40040;42.706;23.372;2023-11-18T15:31:10;3.50;;;3.20;;
6937;SDS011;40040;42.706;23.372;2023-11-18T15:33:40;4.63;;;3.03;;
6937;SDS011;40040;42.706;23.372;2023-11-18T15:36:11;3.03;;;2.73;;
6937;SDS011;40040;42.706;23.372;2023-11-18T15:38:39;3.20;;;2.87;;
6937;SDS011;40040;42.706;23.372;2023-11-18T15:41:06;3.10;;;2.60;;
6937;SDS011;40040;42.706;23.372;2023-11-18T15:43:38;4.93;;;2.83;;
6937;SDS011;40040;42.706;23.372;2023-11-18T15:46:05;2.73;;;2.53;;
6937;SDS011;40040;42.706;23.372;2023-11-18T15:48:36;3.60;;;2.70;;
6937;SDS011;40040;42.706;23.372;2023-11-18T15:51:03;3.40;;;3.10;;
6937;SDS011;40040;42.706;23.372;2023-11-18T15:53:30;3.80;;;3.50;;
6937;SDS011;40040;42.706;23.372;2023-11-18T15:55:59;3.07;;;2.27;;
6937;SDS011;40040;42.706;23.372;2023-11-18T15:58:26;3.80;;;3.40;;
6937;SDS011;40040;42.706;23.372;2023-11-18T16:00:56;4.63;;;3.20;;
6937;SDS011;40040;42.706;23.372;2023-11-18T16:03:25;4.63;;;3.23;;
6937;SDS011;40040;42.706;23.372;2023-11-18T16:05:52;2.53;;;2.37;;
6937;SDS011;40040;42.706;23.372;2023-11-18T16:08:20;4.23;;;3.47;;
6937;SDS011;40040;42.706;23.372;2023-11-18T16:10:47;3.97;;;3.30;;
6937;SDS011;40040;42.706;23.372;2023-11-18T16:13:14;4.03;;;3.30;;
6937;SDS011;40040;42.706;23.372;2023-11-18T16:15:41;3.83;;;3.10;;
6937;SDS011;40040;42.706;23.372;2023-11-18T16:18:09;4.40;;;2.87;;
6937;SDS011;40040;42.706;23.372;2023-11-18T16:20:36;4.37;;;3.00;;
6937;SDS011;40040;42.706;23.372;2023-11-18T16:23:03;2.73;;;2.50;;
6937;SDS011;40040;42.706;23.372;2023-11-18T16:25:30;3.07;;;2.77;;
6937;SDS011;40040;42.706;23.372;2023-11-18T16:27:59;5.20;;;3.27;;
6937;SDS011;40040;42.706;23.372;2023-11-18T16:30:27;3.07;;;2.80;;
6937;SDS011;40040;42.706;23.372;2023-11-18T16:32:55;7.10;;;3.60;;
6937;SDS011;40040;42.706;23.372;2023-11-18T16:35:24;2.30;;;2.10;;
6937;SDS011;40040;42.706;23.372;2023-11-18T16:37:51;3.50;;;3.20;;
6937;SDS011;40040;42.706;23.372;2023-11-18T16:40:18;2.43;;;2.23;;
6937;SDS011;40040;42.706;23.372;2023-11-18T16:42:46;4.97;;;2.80;;
6937;SDS011;40040;42.706;23.372;2023-11-18T16:45:16;3.20;;;3.00;;
6937;SDS011;40040;42.706;23.372;2023-11-18T16:47:45;2.67;;;2.47;;
6937;SDS011;40040;42.706;23.372;2023-11-18T16:50:16;2.80;;;2.60;;
6937;SDS011;40040;42.706;23.372;2023-11-18T16:52:45;6.10;;;3.30;;
6937;SDS011;40040;42.706;23.372;2023-11-18T16:55:14;2.70;;;2.50;;